createdAt,value
2023-03-21T00:01:03.935Z,19.65
2023-03-21T00:03:32.828Z,19.60
2023-03-21T00:06:04.679Z,19.55
2023-03-21T00:08:31.577Z,22.50
2023-03-21T00:11:00.976Z,21.15
2023-03-21T00:13:33.076Z,20.48
2023-03-21T00:16:24.642Z,17.33
2023-03-21T00:18:55.059Z,20.27
2023-03-21T00:24:15.459Z,24.20
2023-03-21T00:26:42.218Z,23.20
2023-03-21T00:29:09.064Z,20.53
2023-03-21T00:31:35.929Z,22.48
2023-03-21T00:34:04.027Z,24.98
2023-03-21T00:36:32.088Z,18.17
2023-03-21T00:39:00.880Z,23.05
2023-03-21T00:41:41.513Z,26.27
2023-03-21T00:44:11.699Z,20.73
2023-03-21T00:47:00.541Z,29.45
2023-03-21T00:49:26.109Z,31.10
2023-03-21T00:51:55.142Z,31.58
2023-03-21T00:54:24.634Z,32.70
2023-03-21T00:56:51.544Z,31.58
2023-03-21T00:59:18.382Z,38.67
2023-03-21T01:01:46.834Z,36.42
2023-03-21T01:04:16.812Z,34.78
2023-03-21T01:06:44.838Z,37.30
2023-03-21T01:09:18.772Z,36.50
2023-03-21T01:11:45.988Z,30.27
2023-03-21T01:14:22.583Z,33.45
2023-03-21T01:16:54.081Z,33.90
2023-03-21T01:19:29.099Z,32.03
2023-03-21T01:21:58.594Z,32.90
2023-03-21T01:24:25.791Z,38.05
2023-03-21T01:26:52.936Z,32.72
2023-03-21T01:29:19.981Z,35.78
2023-03-21T01:31:46.856Z,35.20
2023-03-21T01:34:13.851Z,37.35
2023-03-21T01:36:41.579Z,35.58
2023-03-21T01:39:14.568Z,37.92
2023-03-21T01:41:44.698Z,41.17
2023-03-21T01:44:20.796Z,39.13
2023-03-21T01:47:07.656Z,36.47
2023-03-21T01:49:49.733Z,45.13
2023-03-21T01:52:38.650Z,34.58
2023-03-21T01:55:13.165Z,36.35
2023-03-21T01:58:04.408Z,37.03
2023-03-21T02:00:38.101Z,40.08
2023-03-21T02:03:33.364Z,28.98
2023-03-21T02:06:46.714Z,32.40
2023-03-21T02:09:28.271Z,37.33
2023-03-21T02:11:55.737Z,37.97
2023-03-21T02:14:29.346Z,38.00
2023-03-21T02:17:19.590Z,38.17
2023-03-21T02:20:11.758Z,33.38
2023-03-21T02:22:57.600Z,31.45
2023-03-21T02:25:54.445Z,38.37
2023-03-21T02:28:55.820Z,39.15
2023-03-21T02:31:28.370Z,37.85
2023-03-21T02:34:14.092Z,32.22
2023-03-21T02:36:53.539Z,39.90
2023-03-21T02:39:27.865Z,33.63
2023-03-21T02:42:05.876Z,35.65
2023-03-21T02:44:48.761Z,28.75
2023-03-21T02:47:29.536Z,32.25
2023-03-21T02:50:11.777Z,29.08
2023-03-21T02:52:41.431Z,35.67
2023-03-21T02:55:25.814Z,32.13
2023-03-21T02:58:12.274Z,29.55
2023-03-21T03:00:46.177Z,30.90
2023-03-21T03:03:33.372Z,23.42
2023-03-21T03:06:04.253Z,23.40
2023-03-21T03:09:02.208Z,30.90
2023-03-21T03:11:40.030Z,30.38
2023-03-21T03:14:39.753Z,30.77
2023-03-21T03:17:22.418Z,27.63
2023-03-21T03:20:18.010Z,23.47
2023-03-21T03:23:02.833Z,28.77
2023-03-21T03:25:55.058Z,27.63
2023-03-21T03:28:28.863Z,25.98
2023-03-21T03:31:08.716Z,23.17
2023-03-21T03:33:48.196Z,24.33
2023-03-21T03:36:30.866Z,28.83
2023-03-21T03:39:04.017Z,31.23
2023-03-21T03:42:00.770Z,25.92
2023-03-21T03:44:21.683Z,32.65
2023-03-21T03:47:05.264Z,25.47
2023-03-21T03:49:55.733Z,24.52
2023-03-21T03:52:42.039Z,28.40
2023-03-21T03:55:17.649Z,27.77
2023-03-21T03:57:47.808Z,26.55
2023-03-21T04:00:17.169Z,24.13
2023-03-21T04:02:44.129Z,30.48
2023-03-21T04:05:13.077Z,33.30
2023-03-21T04:07:41.400Z,34.90
2023-03-21T04:10:09.005Z,36.67
2023-03-21T04:12:40.953Z,32.57
2023-03-21T04:15:19.378Z,39.13
2023-03-21T04:17:52.796Z,39.15
2023-03-21T04:20:33.849Z,39.30
2023-03-21T04:23:08.597Z,35.63
2023-03-21T04:25:38.723Z,39.67
2023-03-21T04:28:07.731Z,43.70
2023-03-21T04:31:01.209Z,35.72
2023-03-21T04:33:38.342Z,35.47
2023-03-21T04:36:09.328Z,29.83
2023-03-21T04:38:36.967Z,28.70
2023-03-21T04:41:04.797Z,38.85
2023-03-21T04:43:32.162Z,39.97
2023-03-21T04:45:59.223Z,35.15
2023-03-21T04:48:26.238Z,37.63
2023-03-21T04:50:53.129Z,33.43
2023-03-21T04:53:19.961Z,36.58
2023-03-21T04:55:47.074Z,35.03
2023-03-21T04:58:14.139Z,30.33
2023-03-21T05:00:41.027Z,20.88
2023-03-21T05:03:09.113Z,28.07
2023-03-21T05:05:37.618Z,22.92
2023-03-21T05:08:05.790Z,32.53
2023-03-21T05:10:33.117Z,30.20
2023-03-21T05:13:00.093Z,32.03
2023-03-21T05:15:28.079Z,27.83
2023-03-21T05:17:55.348Z,32.63
2023-03-21T05:20:22.345Z,27.48
2023-03-21T05:22:50.182Z,24.98
2023-03-21T05:25:18.217Z,29.38
2023-03-21T05:28:04.230Z,25.87
2023-03-21T05:30:31.981Z,24.58
2023-03-21T05:33:01.009Z,28.10
2023-03-21T05:35:28.238Z,27.70
2023-03-21T05:37:58.266Z,25.52
2023-03-21T05:40:27.970Z,27.27
2023-03-21T05:42:57.882Z,25.55
2023-03-21T05:45:25.980Z,30.83
2023-03-21T05:47:53.580Z,33.65
2023-03-21T05:50:23.752Z,28.58
2023-03-21T05:53:04.260Z,23.13
2023-03-21T05:55:31.082Z,29.10
2023-03-21T05:57:58.743Z,28.08
2023-03-21T06:00:30.498Z,28.10
2023-03-21T06:03:21.976Z,24.50
2023-03-21T06:06:14.971Z,21.60
2023-03-21T06:08:52.284Z,25.88
2023-03-21T06:11:33.971Z,23.80
2023-03-21T06:14:17.277Z,25.23
2023-03-21T06:16:46.141Z,20.95
2023-03-21T06:19:13.229Z,23.63
2023-03-21T06:21:55.336Z,21.10
2023-03-21T06:24:22.192Z,29.90
2023-03-21T06:26:49.014Z,24.27
2023-03-21T06:29:16.020Z,19.67
2023-03-21T06:31:47.821Z,21.17
2023-03-21T06:34:15.819Z,22.13
2023-03-21T06:36:44.820Z,20.48
2023-03-21T06:39:13.898Z,20.75
2023-03-21T06:41:41.759Z,21.13
2023-03-21T06:44:08.513Z,22.83
2023-03-21T06:46:43.996Z,22.75
2023-03-21T06:49:12.695Z,21.48
2023-03-21T06:51:39.474Z,24.40
2023-03-21T06:54:15.979Z,19.80
2023-03-21T06:56:51.147Z,19.77
2023-03-21T06:59:24.274Z,21.52
2023-03-21T07:01:55.899Z,24.05
2023-03-21T07:04:27.103Z,23.65
2023-03-21T07:06:55.841Z,22.17
2023-03-21T07:09:24.696Z,19.63
2023-03-21T07:11:54.074Z,22.05
2023-03-21T07:14:25.773Z,20.00
2023-03-21T07:16:53.821Z,21.38
2023-03-21T07:19:20.837Z,25.60
2023-03-21T07:21:48.449Z,19.47
2023-03-21T07:24:15.410Z,21.08
2023-03-21T07:26:42.400Z,23.38
2023-03-21T07:29:09.613Z,22.17
2023-03-21T07:31:37.464Z,22.00
2023-03-21T07:34:04.416Z,20.93
2023-03-21T07:36:31.878Z,21.30
2023-03-21T07:38:58.754Z,19.00
2023-03-21T07:41:25.716Z,20.35
2023-03-21T07:43:52.610Z,19.73
2023-03-21T07:46:19.452Z,18.10
2023-03-21T07:48:48.809Z,19.05
2023-03-21T07:51:15.752Z,18.92
2023-03-21T07:53:43.799Z,21.02
2023-03-21T07:56:10.963Z,20.42
2023-03-21T07:58:37.822Z,21.90
2023-03-21T08:01:04.754Z,18.25
2023-03-21T08:03:33.268Z,18.85
2023-03-21T08:06:03.676Z,20.10
2023-03-21T08:08:30.841Z,22.23
2023-03-21T08:10:57.867Z,20.23
2023-03-21T08:13:26.043Z,22.60
2023-03-21T08:15:53.343Z,15.75
2023-03-21T08:18:20.722Z,21.83
2023-03-21T08:20:54.779Z,22.17
2023-03-21T08:23:22.426Z,15.83
2023-03-21T08:25:56.679Z,17.38
2023-03-21T08:28:23.794Z,13.60
2023-03-21T08:30:51.243Z,18.60
2023-03-21T08:33:18.802Z,25.77
2023-03-21T08:35:46.640Z,17.00
2023-03-21T08:38:14.060Z,19.73
2023-03-21T08:40:41.475Z,17.02
2023-03-21T08:43:08.520Z,15.98
2023-03-21T08:45:35.965Z,14.75
2023-03-21T08:48:03.196Z,15.27
2023-03-21T08:50:31.823Z,19.38
2023-03-21T08:52:58.895Z,19.85
2023-03-21T08:55:25.940Z,18.52
2023-03-21T08:57:52.854Z,18.63
2023-03-21T09:00:20.677Z,16.47
2023-03-21T09:02:51.464Z,19.00
2023-03-21T09:05:18.849Z,11.20
2023-03-21T09:07:46.000Z,15.98
2023-03-21T09:10:21.583Z,16.95
2023-03-21T09:12:51.838Z,14.03
2023-03-21T09:15:21.823Z,17.38
2023-03-21T09:17:52.378Z,14.85
2023-03-21T09:20:30.644Z,19.83
2023-03-21T09:22:59.126Z,11.02
2023-03-21T09:25:29.495Z,15.17
2023-03-21T09:27:58.080Z,21.77
2023-03-21T09:30:26.481Z,26.52
2023-03-21T09:32:55.542Z,19.75
2023-03-21T09:35:22.689Z,20.27
2023-03-21T09:37:50.105Z,12.10
2023-03-21T09:40:30.720Z,12.35
2023-03-21T09:43:22.748Z,23.52
2023-03-21T09:45:52.549Z,14.68
2023-03-21T09:48:56.842Z,16.17
2023-03-21T09:51:28.802Z,17.97
2023-03-21T09:54:00.627Z,16.73
2023-03-21T09:56:27.976Z,15.48
2023-03-21T09:58:59.321Z,11.90
2023-03-21T10:01:29.941Z,15.95
2023-03-21T10:04:00.583Z,16.90
2023-03-21T10:06:31.691Z,15.65
2023-03-21T10:09:17.036Z,13.15
2023-03-21T10:11:51.726Z,10.90
2023-03-21T10:14:29.913Z,16.17
2023-03-21T10:17:00.725Z,15.33
2023-03-21T10:19:29.075Z,16.08
2023-03-21T10:22:01.256Z,12.88
2023-03-21T10:24:33.644Z,16.38
2023-03-21T10:27:02.372Z,12.88
2023-03-21T10:29:38.013Z,13.50
2023-03-21T10:32:06.230Z,14.10
2023-03-21T10:34:36.898Z,11.65
2023-03-21T10:37:05.517Z,10.38
2023-03-21T10:39:41.552Z,19.85
2023-03-21T10:42:27.126Z,12.70
2023-03-21T10:44:57.551Z,12.82
2023-03-21T10:47:32.062Z,11.63
2023-03-21T10:50:12.398Z,12.57
2023-03-21T10:52:50.700Z,13.07
2023-03-21T10:55:22.753Z,12.17
2023-03-21T10:57:55.892Z,12.48
2023-03-21T11:00:27.482Z,12.25
2023-03-21T11:02:55.324Z,14.02
2023-03-21T11:05:26.957Z,14.15
2023-03-21T11:08:14.782Z,15.77
2023-03-21T11:11:01.815Z,12.82
2023-03-21T11:13:39.223Z,15.82
2023-03-21T11:16:09.718Z,15.05
2023-03-21T11:18:42.752Z,13.60
2023-03-21T11:21:14.806Z,15.07
2023-03-21T11:23:48.039Z,15.32
2023-03-21T11:26:44.461Z,14.93
2023-03-21T11:29:25.386Z,17.38
2023-03-21T11:31:52.572Z,17.00
2023-03-21T11:34:34.018Z,15.77
2023-03-21T11:37:02.706Z,14.73
2023-03-21T11:39:39.962Z,11.02
2023-03-21T11:42:26.490Z,13.02
2023-03-21T11:45:18.346Z,18.25
2023-03-21T11:47:52.425Z,15.90
2023-03-21T11:50:38.399Z,11.98
2023-03-21T11:53:27.007Z,12.98
2023-03-21T11:56:08.981Z,14.25
2023-03-21T11:58:52.961Z,15.57
2023-03-21T12:01:34.947Z,14.80
2023-03-21T12:04:38.298Z,12.45
2023-03-21T12:07:44.315Z,15.10
2023-03-21T12:10:48.470Z,17.02
2023-03-21T12:13:24.468Z,15.18
2023-03-21T12:16:06.601Z,11.33
2023-03-21T12:19:09.329Z,12.90
2023-03-21T12:22:17.696Z,16.05
2023-03-21T12:24:55.395Z,12.00
2023-03-21T12:27:50.429Z,14.35
2023-03-21T12:30:26.426Z,14.20
2023-03-21T12:32:57.933Z,13.52
2023-03-21T12:35:37.920Z,14.73
2023-03-21T12:38:23.959Z,13.70
2023-03-21T12:41:19.782Z,14.70
2023-03-21T12:44:04.218Z,13.13
2023-03-21T12:46:46.075Z,14.45
2023-03-21T12:49:33.328Z,12.00
2023-03-21T12:52:11.551Z,11.70
2023-03-21T12:54:51.957Z,15.77
2023-03-21T12:57:30.604Z,13.87
2023-03-21T13:00:10.566Z,11.82
2023-03-21T13:02:47.488Z,11.18
2023-03-21T13:05:31.780Z,10.55
2023-03-21T13:08:09.455Z,11.90
2023-03-21T13:10:37.112Z,15.87
2023-03-21T13:13:39.325Z,10.18
2023-03-21T13:16:09.386Z,14.15
2023-03-21T13:18:54.736Z,11.57
2023-03-21T13:21:43.199Z,13.13
2023-03-21T13:24:23.560Z,12.37
2023-03-21T13:27:00.656Z,10.32
2023-03-21T13:29:44.306Z,13.90
2023-03-21T13:32:23.354Z,12.70
2023-03-21T13:35:04.490Z,13.48
2023-03-21T13:37:35.016Z,15.13
2023-03-21T13:40:12.890Z,12.52
2023-03-21T13:42:52.712Z,14.63
2023-03-21T13:45:31.804Z,13.07
2023-03-21T13:48:27.654Z,16.00
2023-03-21T13:51:04.203Z,16.23
2023-03-21T13:53:32.661Z,15.15
2023-03-21T13:56:14.859Z,13.98
2023-03-21T13:58:44.851Z,18.77
2023-03-21T14:01:30.070Z,17.27
2023-03-21T14:04:04.072Z,13.30
2023-03-21T14:06:43.234Z,12.65
2023-03-21T14:09:34.891Z,12.48
2023-03-21T14:12:07.545Z,14.45
2023-03-21T14:14:43.027Z,15.70
2023-03-21T14:17:23.125Z,14.87
2023-03-21T14:20:21.446Z,17.17
2023-03-21T14:22:48.938Z,17.60
2023-03-21T14:25:19.147Z,16.23
2023-03-21T14:27:50.201Z,14.95
2023-03-21T14:30:36.968Z,13.43
2023-03-21T14:33:27.273Z,15.02
2023-03-21T14:35:58.559Z,13.98
2023-03-21T14:38:35.097Z,13.50
2023-03-21T14:41:02.104Z,14.18
2023-03-21T14:43:30.733Z,14.77
2023-03-21T14:45:57.886Z,14.18
2023-03-21T14:48:35.259Z,16.30
2023-03-21T14:51:09.605Z,15.73
2023-03-21T14:53:39.938Z,14.70
2023-03-21T14:56:17.645Z,14.70
2023-03-21T14:58:47.030Z,14.00
2023-03-21T15:01:21.385Z,15.43
2023-03-21T15:03:51.528Z,13.15
2023-03-21T15:06:18.691Z,12.95
2023-03-21T15:09:05.620Z,11.07
2023-03-21T15:11:36.651Z,13.90
2023-03-21T15:14:11.867Z,14.93
2023-03-21T15:16:39.799Z,14.68
2023-03-21T15:19:07.373Z,12.85
2023-03-21T15:21:48.455Z,13.17
2023-03-21T15:24:17.991Z,10.75
2023-03-21T15:26:47.223Z,12.90
2023-03-21T15:29:16.252Z,14.27
2023-03-21T15:31:44.020Z,13.77
2023-03-21T15:34:27.666Z,12.83
2023-03-21T15:37:05.562Z,12.63
2023-03-21T15:39:35.958Z,14.77
2023-03-21T15:42:25.889Z,15.15
2023-03-21T15:44:55.521Z,13.07
2023-03-21T15:47:42.494Z,14.17
2023-03-21T15:50:32.764Z,16.20
2023-03-21T15:53:02.751Z,17.27
2023-03-21T15:55:48.251Z,15.43
2023-03-21T15:58:18.989Z,13.90
2023-03-21T16:00:52.173Z,12.67
2023-03-21T16:03:27.294Z,13.13
2023-03-21T16:06:12.721Z,13.27
2023-03-21T16:08:46.162Z,12.05
2023-03-21T16:11:49.412Z,12.43
2023-03-21T16:14:18.665Z,10.67
2023-03-21T16:16:46.155Z,11.30
2023-03-21T16:19:13.488Z,13.23
2023-03-21T16:21:40.614Z,10.35
2023-03-21T16:24:10.440Z,11.68
2023-03-21T16:26:45.152Z,10.97
2023-03-21T16:29:15.603Z,11.40
2023-03-21T16:31:43.004Z,9.27
2023-03-21T16:34:10.789Z,12.30
2023-03-21T16:36:40.387Z,9.30
2023-03-21T16:39:17.948Z,10.10
2023-03-21T16:41:45.264Z,8.93
2023-03-21T16:44:12.301Z,9.52
2023-03-21T16:46:39.270Z,9.10
2023-03-21T16:49:20.652Z,10.35
2023-03-21T16:51:47.675Z,11.10
2023-03-21T16:54:14.433Z,9.50
2023-03-21T16:56:45.218Z,10.13
2023-03-21T16:59:15.568Z,11.32
2023-03-21T17:01:45.993Z,11.98
2023-03-21T17:04:13.168Z,10.30
2023-03-21T17:06:47.298Z,12.27
2023-03-21T17:09:16.503Z,12.63
2023-03-21T17:11:44.283Z,13.18
2023-03-21T17:14:12.518Z,14.80
2023-03-21T17:16:43.307Z,16.23
2023-03-21T17:19:23.883Z,13.20
2023-03-21T17:21:51.064Z,14.57
2023-03-21T17:24:19.034Z,14.05
2023-03-21T17:26:45.884Z,12.55
2023-03-21T17:29:14.086Z,12.30
2023-03-21T17:31:41.420Z,12.73
2023-03-21T17:34:09.649Z,14.55
2023-03-21T17:36:39.461Z,14.30
2023-03-21T17:39:08.816Z,14.05
2023-03-21T17:41:35.836Z,12.77
2023-03-21T17:44:03.279Z,11.63
2023-03-21T17:46:37.129Z,11.05
2023-03-21T17:49:05.433Z,13.00
2023-03-21T17:51:33.218Z,15.20
2023-03-21T17:54:00.445Z,11.47
2023-03-21T17:56:30.914Z,11.48
2023-03-21T17:59:03.960Z,13.23
2023-03-21T18:01:31.120Z,12.35
2023-03-21T18:03:58.975Z,8.00
2023-03-21T18:06:26.739Z,10.90
2023-03-21T18:08:54.368Z,9.90
2023-03-21T18:11:23.438Z,10.38
2023-03-21T18:13:50.347Z,10.63
2023-03-21T18:16:22.203Z,10.88
2023-03-21T18:18:50.895Z,10.33
2023-03-21T18:21:20.176Z,10.85
2023-03-21T18:23:47.630Z,11.60
2023-03-21T18:26:18.142Z,11.35
2023-03-21T18:28:46.659Z,12.50
2023-03-21T18:31:20.557Z,8.93
2023-03-21T18:33:49.238Z,12.45
2023-03-21T18:36:25.604Z,13.48
2023-03-21T18:38:56.851Z,14.10
2023-03-21T18:41:23.869Z,12.35
2023-03-21T18:44:13.410Z,10.63
2023-03-21T18:46:40.490Z,12.57
2023-03-21T18:49:42.231Z,14.75
2023-03-21T18:51:54.794Z,12.95
2023-03-21T18:54:21.590Z,13.55
2023-03-21T18:57:33.933Z,13.73
2023-03-21T18:59:39.325Z,15.38
2023-03-21T19:02:06.830Z,13.18
2023-03-21T19:04:34.279Z,12.40
2023-03-21T19:07:01.418Z,15.55
2023-03-21T19:09:32.009Z,14.60
2023-03-21T19:11:59.891Z,15.38
2023-03-21T19:14:27.141Z,13.63
2023-03-21T19:17:37.985Z,14.07
2023-03-21T19:19:43.462Z,14.02
2023-03-21T19:22:10.681Z,14.23
2023-03-21T19:24:37.672Z,13.18
2023-03-21T19:27:04.540Z,15.32
2023-03-21T19:29:31.482Z,13.30
2023-03-21T19:31:58.609Z,16.40
2023-03-21T19:34:26.783Z,14.03
2023-03-21T19:36:54.497Z,13.70
2023-03-21T19:39:22.771Z,12.55
2023-03-21T19:41:51.104Z,11.73
2023-03-21T19:44:19.451Z,13.52
2023-03-21T19:46:48.510Z,13.40
2023-03-21T19:49:20.096Z,15.20
2023-03-21T19:51:47.418Z,13.48
2023-03-21T19:54:17.230Z,12.95
2023-03-21T19:56:47.512Z,13.20
2023-03-21T19:59:15.413Z,15.07
2023-03-21T20:01:43.310Z,14.55
2023-03-21T20:04:11.297Z,13.85
2023-03-21T20:06:38.565Z,13.48
2023-03-21T20:09:47.196Z,14.18
2023-03-21T20:11:54.806Z,15.20
2023-03-21T20:14:22.007Z,15.23
2023-03-21T20:16:49.007Z,14.07
2023-03-21T20:19:16.238Z,14.20
2023-03-21T20:21:50.785Z,13.50
2023-03-21T20:24:21.872Z,13.97
2023-03-21T20:26:53.380Z,15.32
2023-03-21T20:32:07.660Z,13.68
2023-03-21T20:34:36.855Z,13.48
2023-03-21T20:37:06.062Z,16.27
2023-03-21T20:39:33.684Z,15.32
2023-03-21T20:42:00.433Z,17.55
2023-03-21T20:44:48.383Z,13.70
2023-03-21T20:47:15.369Z,11.38
2023-03-21T20:49:42.306Z,18.43
2023-03-21T20:54:59.790Z,15.15
2023-03-21T20:57:27.243Z,12.65
2023-03-21T20:59:54.978Z,10.52
2023-03-21T21:02:22.506Z,10.57
2023-03-21T21:05:21.490Z,10.88
2023-03-21T21:07:36.442Z,13.75
2023-03-21T21:10:03.500Z,10.65
2023-03-21T21:12:30.511Z,9.70
2023-03-21T21:14:57.444Z,12.13
2023-03-21T21:17:46.627Z,8.93
2023-03-21T21:20:18.446Z,8.93
2023-03-21T21:22:58.457Z,10.63
2023-03-21T21:25:27.601Z,11.18
2023-03-21T21:27:54.428Z,12.60
2023-03-21T21:30:21.790Z,9.50
2023-03-21T21:32:49.434Z,10.75
2023-03-21T21:35:18.014Z,13.15
2023-03-21T21:37:45.040Z,9.32
2023-03-21T21:40:13.924Z,11.20
2023-03-21T21:42:42.954Z,10.60
2023-03-21T21:45:11.735Z,11.70
2023-03-21T21:47:39.507Z,10.07
2023-03-21T21:50:07.781Z,11.07
2023-03-21T21:52:34.931Z,11.83
2023-03-21T21:55:02.078Z,11.20
2023-03-21T21:57:34.233Z,9.98
2023-03-21T22:00:08.687Z,10.95
2023-03-21T22:02:43.490Z,13.48
2023-03-21T22:05:10.543Z,12.67
2023-03-21T22:07:38.016Z,13.25
2023-03-21T22:10:05.614Z,10.60
2023-03-21T22:12:32.591Z,10.27
2023-03-21T22:14:59.463Z,10.00
2023-03-21T22:17:26.262Z,10.43
2023-03-21T22:20:05.131Z,11.35
2023-03-21T22:22:36.845Z,14.07
2023-03-21T22:25:05.465Z,10.77
2023-03-21T22:27:32.580Z,11.73
2023-03-21T22:30:04.897Z,11.67
2023-03-21T22:32:33.068Z,8.93
2023-03-21T22:35:02.415Z,9.38
2023-03-21T22:37:33.701Z,12.23
2023-03-21T22:40:00.723Z,11.93
2023-03-21T22:42:27.972Z,10.50
2023-03-21T22:44:54.715Z,8.20
2023-03-21T22:47:21.535Z,9.75
2023-03-21T22:49:48.403Z,9.88
2023-03-21T22:52:15.219Z,9.70
2023-03-21T22:54:42.027Z,7.10
2023-03-21T22:57:09.082Z,13.07
2023-03-21T22:59:35.977Z,10.65
2023-03-21T23:02:02.869Z,8.60
2023-03-21T23:04:29.762Z,8.85
2023-03-21T23:06:56.820Z,9.27
2023-03-21T23:09:23.910Z,8.65
2023-03-21T23:11:50.878Z,9.13
2023-03-21T23:14:20.122Z,8.52
2023-03-21T23:16:52.600Z,7.97
2023-03-21T23:19:21.621Z,8.03
2023-03-21T23:21:48.650Z,10.07
2023-03-21T23:24:15.915Z,7.22
2023-03-21T23:26:43.023Z,7.82
2023-03-21T23:29:10.745Z,7.05
2023-03-21T23:31:37.589Z,6.00
2023-03-21T23:34:05.343Z,9.57
2023-03-21T23:36:32.238Z,9.68
2023-03-21T23:38:59.353Z,12.45
2023-03-21T23:41:26.481Z,9.07
2023-03-21T23:43:53.361Z,8.50
2023-03-21T23:46:20.528Z,9.13
2023-03-21T23:48:47.565Z,8.18
2023-03-21T23:51:16.517Z,8.98
2023-03-21T23:53:45.063Z,10.25
2023-03-21T23:56:18.403Z,7.60
2023-03-21T23:58:46.259Z,8.70
